sensor_id;sensor_type;location;lat;lon;timestamp;pressure;altitude;pressure_sealevel;temperature;humidity
56142;BME280;42018;48.588;10.836;2022-12-10T00:01:24;95586.78;;;1.71;80.14
56142;BME280;42018;48.588;10.836;2022-12-10T00:04:10;95579.09;;;1.81;80.20
56142;BME280;42018;48.588;10.836;2022-12-10T00:06:56;95585.22;;;1.86;79.59
56142;BME280;42018;48.588;10.836;2022-12-10T00:09:42;95582.13;;;1.89;79.71
56142;BME280;42018;48.588;10.836;2022-12-10T00:12:27;95580.00;;;1.86;79.65
56142;BME280;42018;48.588;10.836;2022-12-10T00:15:12;95580.53;;;1.88;80.11
56142;BME280;42018;48.588;10.836;2022-12-10T00:17:58;95577.75;;;1.95;79.64
56142;BME280;42018;48.588;10.836;2022-12-10T00:20:43;95583.75;;;1.96;79.27
56142;BME280;42018;48.588;10.836;2022-12-10T00:23:28;95582.03;;;2.01;79.26
56142;BME280;42018;48.588;10.836;2022-12-10T00:26:28;95583.59;;;2.02;78.67
56142;BME280;42018;48.588;10.836;2022-12-10T00:29:13;95582.28;;;2.00;78.76
56142;BME280;42018;48.588;10.836;2022-12-10T00:31:59;95588.63;;;1.87;78.95
56142;BME280;42018;48.588;10.836;2022-12-10T00:34:44;95595.34;;;1.83;79.30
56142;BME280;42018;48.588;10.836;2022-12-10T00:37:29;95602.28;;;1.77;79.54
56142;BME280;42018;48.588;10.836;2022-12-10T00:40:15;95599.38;;;1.74;79.89
56142;BME280;42018;48.588;10.836;2022-12-10T00:43:00;95599.38;;;1.74;79.91
56142;BME280;42018;48.588;10.836;2022-12-10T00:45:45;95601.56;;;1.99;78.69
56142;BME280;42018;48.588;10.836;2022-12-10T00:48:31;95603.41;;;1.98;78.30
56142;BME280;42018;48.588;10.836;2022-12-10T00:51:21;95606.28;;;1.97;79.01
56142;BME280;42018;48.588;10.836;2022-12-10T00:54:07;95610.19;;;2.16;78.38
56142;BME280;42018;48.588;10.836;2022-12-10T00:56:53;95610.44;;;1.98;77.81
56142;BME280;42018;48.588;10.836;2022-12-10T00:59:38;95608.56;;;1.93;79.03
56142;BME280;42018;48.588;10.836;2022-12-10T01:02:23;95610.94;;;1.95;79.36
56142;BME280;42018;48.588;10.836;2022-12-10T01:05:09;95616.63;;;1.91;79.51
56142;BME280;42018;48.588;10.836;2022-12-10T01:07:54;95621.78;;;1.86;79.39
56142;BME280;42018;48.588;10.836;2022-12-10T01:10:39;95623.44;;;1.92;79.54
56142;BME280;42018;48.588;10.836;2022-12-10T01:13:25;95625.03;;;1.94;79.19
56142;BME280;42018;48.588;10.836;2022-12-10T01:16:12;95630.16;;;1.88;79.85
56142;BME280;42018;48.588;10.836;2022-12-10T01:18:58;95633.41;;;1.96;79.61
56142;BME280;42018;48.588;10.836;2022-12-10T01:21:44;95631.81;;;1.95;79.54
56142;BME280;42018;48.588;10.836;2022-12-10T01:24:29;95632.59;;;1.95;79.48
56142;BME280;42018;48.588;10.836;2022-12-10T01:27:15;95634.69;;;1.93;79.73
56142;BME280;42018;48.588;10.836;2022-12-10T01:30:00;95632.69;;;2.00;79.52
56142;BME280;42018;48.588;10.836;2022-12-10T01:32:46;95633.25;;;2.02;79.41
56142;BME280;42018;48.588;10.836;2022-12-10T01:35:31;95631.03;;;1.94;79.67
56142;BME280;42018;48.588;10.836;2022-12-10T01:38:16;95626.69;;;1.83;79.79
56142;BME280;42018;48.588;10.836;2022-12-10T01:41:03;95630.22;;;1.77;80.38
56142;BME280;42018;48.588;10.836;2022-12-10T01:46:39;95625.66;;;1.84;79.63
56142;BME280;42018;48.588;10.836;2022-12-10T01:49:26;95628.81;;;1.69;80.04
56142;BME280;42018;48.588;10.836;2022-12-10T01:52:11;95624.38;;;1.70;80.71
56142;BME280;42018;48.588;10.836;2022-12-10T01:54:57;95632.63;;;1.78;80.73
56142;BME280;42018;48.588;10.836;2022-12-10T01:57:43;95624.06;;;1.83;80.21
56142;BME280;42018;48.588;10.836;2022-12-10T02:00:30;95626.22;;;1.86;80.27
56142;BME280;42018;48.588;10.836;2022-12-10T02:03:24;95629.22;;;1.95;80.14
56142;BME280;42018;48.588;10.836;2022-12-10T02:12:37;95623.13;;;1.89;80.40
56142;BME280;42018;48.588;10.836;2022-12-10T02:15:29;95624.41;;;2.03;79.63
56142;BME280;42018;48.588;10.836;2022-12-10T02:18:31;95612.28;;;2.14;78.87
56142;BME280;42018;48.588;10.836;2022-12-10T02:21:26;95615.59;;;2.09;78.34
56142;BME280;42018;48.588;10.836;2022-12-10T02:24:19;95611.72;;;2.12;78.68
56142;BME280;42018;48.588;10.836;2022-12-10T02:27:18;95619.97;;;2.04;79.08
56142;BME280;42018;48.588;10.836;2022-12-10T02:30:07;95626.59;;;2.11;78.51
56142;BME280;42018;48.588;10.836;2022-12-10T02:32:53;95614.72;;;2.04;79.51
56142;BME280;42018;48.588;10.836;2022-12-10T02:35:40;95613.44;;;2.06;79.36
56142;BME280;42018;48.588;10.836;2022-12-10T02:38:30;95616.78;;;2.02;79.36
56142;BME280;42018;48.588;10.836;2022-12-10T02:41:24;95609.97;;;2.01;79.41
56142;BME280;42018;48.588;10.836;2022-12-10T02:44:12;95596.34;;;1.99;79.37
56142;BME280;42018;48.588;10.836;2022-12-10T02:47:00;95598.28;;;1.86;79.52
56142;BME280;42018;48.588;10.836;2022-12-10T02:49:47;95607.28;;;1.96;80.36
56142;BME280;42018;48.588;10.836;2022-12-10T02:52:35;95596.69;;;1.85;79.33
56142;BME280;42018;48.588;10.836;2022-12-10T02:55:20;95598.59;;;1.90;80.16
56142;BME280;42018;48.588;10.836;2022-12-10T02:58:18;95605.69;;;1.78;80.64
56142;BME280;42018;48.588;10.836;2022-12-10T03:01:32;95599.31;;;1.85;80.63
56142;BME280;42018;48.588;10.836;2022-12-10T03:07:24;95598.25;;;1.53;81.90
56142;BME280;42018;48.588;10.836;2022-12-10T03:10:17;95599.84;;;1.54;82.53
56142;BME280;42018;48.588;10.836;2022-12-10T03:13:07;95597.63;;;1.62;81.18
56142;BME280;42018;48.588;10.836;2022-12-10T03:15:55;95586.69;;;1.49;81.14
56142;BME280;42018;48.588;10.836;2022-12-10T03:18:44;95591.53;;;1.40;82.18
56142;BME280;42018;48.588;10.836;2022-12-10T03:21:32;95596.81;;;1.45;82.07
56142;BME280;42018;48.588;10.836;2022-12-10T03:24:20;95595.66;;;1.70;80.91
56142;BME280;42018;48.588;10.836;2022-12-10T03:27:08;95589.16;;;1.72;80.62
56142;BME280;42018;48.588;10.836;2022-12-10T03:29:56;95587.50;;;1.83;79.76
56142;BME280;42018;48.588;10.836;2022-12-10T03:32:44;95596.19;;;1.88;78.78
56142;BME280;42018;48.588;10.836;2022-12-10T03:35:30;95609.50;;;1.87;78.94
56142;BME280;42018;48.588;10.836;2022-12-10T03:38:16;95622.81;;;1.85;79.23
56142;BME280;42018;48.588;10.836;2022-12-10T03:41:02;95620.75;;;1.87;78.97
56142;BME280;42018;48.588;10.836;2022-12-10T03:43:59;95629.53;;;1.64;79.44
56142;BME280;42018;48.588;10.836;2022-12-10T03:46:44;95621.34;;;1.44;81.29
56142;BME280;42018;48.588;10.836;2022-12-10T03:49:30;95624.53;;;1.46;81.13
56142;BME280;42018;48.588;10.836;2022-12-10T03:52:15;95619.75;;;1.60;80.74
56142;BME280;42018;48.588;10.836;2022-12-10T03:55:02;95618.63;;;1.67;80.45
56142;BME280;42018;48.588;10.836;2022-12-10T03:57:48;95618.69;;;1.73;80.63
56142;BME280;42018;48.588;10.836;2022-12-10T04:00:33;95616.00;;;1.84;79.80
56142;BME280;42018;48.588;10.836;2022-12-10T04:03:19;95610.84;;;1.89;79.60
56142;BME280;42018;48.588;10.836;2022-12-10T04:06:06;95608.31;;;1.95;79.14
56142;BME280;42018;48.588;10.836;2022-12-10T04:08:52;95604.03;;;1.88;79.19
56142;BME280;42018;48.588;10.836;2022-12-10T04:11:38;95600.47;;;1.95;79.10
56142;BME280;42018;48.588;10.836;2022-12-10T04:14:24;95597.97;;;2.00;79.24
56142;BME280;42018;48.588;10.836;2022-12-10T04:17:28;95596.03;;;2.12;78.00
56142;BME280;42018;48.588;10.836;2022-12-10T04:20:16;95604.50;;;2.02;78.59
56142;BME280;42018;48.588;10.836;2022-12-10T04:23:19;95608.22;;;2.06;78.77
56142;BME280;42018;48.588;10.836;2022-12-10T04:26:23;95612.34;;;2.02;78.15
56142;BME280;42018;48.588;10.836;2022-12-10T04:29:29;95614.16;;;1.85;78.56
56142;BME280;42018;48.588;10.836;2022-12-10T04:32:15;95628.81;;;1.86;79.56
56142;BME280;42018;48.588;10.836;2022-12-10T04:35:00;95627.22;;;1.85;79.74
56142;BME280;42018;48.588;10.836;2022-12-10T04:37:46;95627.22;;;1.68;80.17
56142;BME280;42018;48.588;10.836;2022-12-10T04:40:31;95622.34;;;1.72;80.39
56142;BME280;42018;48.588;10.836;2022-12-10T04:43:17;95627.63;;;1.77;79.91
56142;BME280;42018;48.588;10.836;2022-12-10T04:46:02;95625.44;;;1.85;79.80
56142;BME280;42018;48.588;10.836;2022-12-10T04:48:47;95637.84;;;1.78;79.65
56142;BME280;42018;48.588;10.836;2022-12-10T04:51:33;95639.28;;;1.86;79.78
56142;BME280;42018;48.588;10.836;2022-12-10T04:54:19;95626.75;;;1.88;79.86
56142;BME280;42018;48.588;10.836;2022-12-10T04:57:06;95637.84;;;1.95;79.54
56142;BME280;42018;48.588;10.836;2022-12-10T04:59:51;95631.59;;;1.96;79.18
56142;BME280;42018;48.588;10.836;2022-12-10T05:02:36;95629.28;;;1.66;79.42
56142;BME280;42018;48.588;10.836;2022-12-10T05:05:22;95618.84;;;1.66;79.63
56142;BME280;42018;48.588;10.836;2022-12-10T05:08:07;95613.13;;;1.52;80.81
56142;BME280;42018;48.588;10.836;2022-12-10T05:10:52;95617.16;;;1.60;80.68
56142;BME280;42018;48.588;10.836;2022-12-10T05:13:39;95619.31;;;1.63;80.11
56142;BME280;42018;48.588;10.836;2022-12-10T05:16:27;95625.09;;;1.65;80.37
56142;BME280;42018;48.588;10.836;2022-12-10T05:19:13;95619.25;;;1.75;80.39
56142;BME280;42018;48.588;10.836;2022-12-10T05:21:58;95620.25;;;1.74;80.27
56142;BME280;42018;48.588;10.836;2022-12-10T05:25:02;95623.59;;;1.69;80.06
56142;BME280;42018;48.588;10.836;2022-12-10T05:27:47;95616.47;;;1.81;79.79
56142;BME280;42018;48.588;10.836;2022-12-10T05:30:34;95618.91;;;1.88;79.18
56142;BME280;42018;48.588;10.836;2022-12-10T05:33:20;95618.03;;;1.99;78.93
56142;BME280;42018;48.588;10.836;2022-12-10T05:36:05;95616.88;;;1.90;78.45
56142;BME280;42018;48.588;10.836;2022-12-10T05:38:51;95606.28;;;1.97;77.78
56142;BME280;42018;48.588;10.836;2022-12-10T05:41:39;95598.59;;;1.90;77.61
56142;BME280;42018;48.588;10.836;2022-12-10T05:44:25;95614.47;;;1.88;77.91
56142;BME280;42018;48.588;10.836;2022-12-10T05:47:10;95615.84;;;1.91;77.68
56142;BME280;42018;48.588;10.836;2022-12-10T05:49:55;95614.25;;;1.90;78.41
56142;BME280;42018;48.588;10.836;2022-12-10T05:52:41;95610.28;;;1.87;78.72
56142;BME280;42018;48.588;10.836;2022-12-10T05:55:26;95613.16;;;1.86;78.89
56142;BME280;42018;48.588;10.836;2022-12-10T05:58:13;95611.72;;;1.78;78.79
56142;BME280;42018;48.588;10.836;2022-12-10T06:00:58;95607.91;;;1.69;79.59
56142;BME280;42018;48.588;10.836;2022-12-10T06:03:44;95603.72;;;1.68;79.81
56142;BME280;42018;48.588;10.836;2022-12-10T06:06:36;95605.38;;;1.57;80.00
56142;BME280;42018;48.588;10.836;2022-12-10T06:09:21;95613.00;;;1.76;79.43
56142;BME280;42018;48.588;10.836;2022-12-10T06:12:07;95626.25;;;1.74;79.63
56142;BME280;42018;48.588;10.836;2022-12-10T06:14:52;95635.84;;;1.68;79.14
56142;BME280;42018;48.588;10.836;2022-12-10T06:17:37;95637.69;;;1.68;80.03
56142;BME280;42018;48.588;10.836;2022-12-10T06:20:24;95639.50;;;1.67;79.66
56142;BME280;42018;48.588;10.836;2022-12-10T06:23:09;95650.47;;;1.70;79.42
56142;BME280;42018;48.588;10.836;2022-12-10T06:25:55;95645.13;;;1.76;79.74
56142;BME280;42018;48.588;10.836;2022-12-10T06:28:41;95654.28;;;1.62;79.70
56142;BME280;42018;48.588;10.836;2022-12-10T06:31:26;95666.44;;;1.56;80.46
56142;BME280;42018;48.588;10.836;2022-12-10T06:34:12;95670.88;;;1.56;80.22
56142;BME280;42018;48.588;10.836;2022-12-10T06:36:57;95674.59;;;1.60;80.12
56142;BME280;42018;48.588;10.836;2022-12-10T06:39:42;95673.25;;;1.57;79.76
56142;BME280;42018;48.588;10.836;2022-12-10T06:42:28;95677.31;;;1.65;80.12
56142;BME280;42018;48.588;10.836;2022-12-10T06:45:13;95678.56;;;1.62;80.34
56142;BME280;42018;48.588;10.836;2022-12-10T06:47:58;95685.47;;;1.68;80.08
56142;BME280;42018;48.588;10.836;2022-12-10T06:50:44;95684.84;;;1.78;79.92
56142;BME280;42018;48.588;10.836;2022-12-10T06:53:30;95684.34;;;1.64;80.27
56142;BME280;42018;48.588;10.836;2022-12-10T06:56:17;95675.34;;;1.72;79.57
56142;BME280;42018;48.588;10.836;2022-12-10T06:59:04;95680.00;;;1.70;79.54
56142;BME280;42018;48.588;10.836;2022-12-10T07:01:51;95678.75;;;1.73;79.14
56142;BME280;42018;48.588;10.836;2022-12-10T07:04:36;95670.13;;;1.72;79.65
56142;BME280;42018;48.588;10.836;2022-12-10T07:07:22;95675.72;;;1.64;80.00
56142;BME280;42018;48.588;10.836;2022-12-10T07:10:08;95670.66;;;1.74;79.89
56142;BME280;42018;48.588;10.836;2022-12-10T07:12:53;95668.78;;;1.86;79.19
56142;BME280;42018;48.588;10.836;2022-12-10T07:15:39;95675.81;;;1.69;79.33
56142;BME280;42018;48.588;10.836;2022-12-10T07:18:24;95678.56;;;1.62;79.47
56142;BME280;42018;48.588;10.836;2022-12-10T07:21:26;95679.78;;;1.72;79.13
56142;BME280;42018;48.588;10.836;2022-12-10T07:24:15;95677.56;;;1.80;79.21
56142;BME280;42018;48.588;10.836;2022-12-10T07:27:04;95682.13;;;1.73;78.68
56142;BME280;42018;48.588;10.836;2022-12-10T07:29:50;95687.22;;;1.80;78.83
56142;BME280;42018;48.588;10.836;2022-12-10T07:32:35;95686.25;;;1.69;79.12
56142;BME280;42018;48.588;10.836;2022-12-10T07:35:21;95691.59;;;1.62;79.46
56142;BME280;42018;48.588;10.836;2022-12-10T07:38:06;95685.78;;;1.72;79.39
56142;BME280;42018;48.588;10.836;2022-12-10T07:40:51;95692.44;;;1.80;78.29
56142;BME280;42018;48.588;10.836;2022-12-10T07:43:40;95691.94;;;1.66;79.18
56142;BME280;42018;48.588;10.836;2022-12-10T07:46:28;95687.63;;;1.60;79.20
56142;BME280;42018;48.588;10.836;2022-12-10T07:49:14;95688.91;;;1.86;78.68
56142;BME280;42018;48.588;10.836;2022-12-10T07:51:59;95690.22;;;1.88;77.90
56142;BME280;42018;48.588;10.836;2022-12-10T07:54:45;95690.31;;;1.94;77.81
56142;BME280;42018;48.588;10.836;2022-12-10T07:57:31;95677.59;;;1.97;77.00
56142;BME280;42018;48.588;10.836;2022-12-10T08:00:16;95683.19;;;2.06;76.44
56142;BME280;42018;48.588;10.836;2022-12-10T08:03:02;95689.69;;;1.86;77.46
56142;BME280;42018;48.588;10.836;2022-12-10T08:05:47;95689.56;;;1.81;77.07
56142;BME280;42018;48.588;10.836;2022-12-10T08:08:34;95694.13;;;1.86;78.30
56142;BME280;42018;48.588;10.836;2022-12-10T08:11:21;95688.03;;;1.97;77.46
56142;BME280;42018;48.588;10.836;2022-12-10T08:14:07;95687.56;;;2.00;77.52
56142;BME280;42018;48.588;10.836;2022-12-10T08:16:52;95684.78;;;2.07;77.31
56142;BME280;42018;48.588;10.836;2022-12-10T08:19:37;95690.81;;;2.07;77.45
56142;BME280;42018;48.588;10.836;2022-12-10T08:22:23;95688.88;;;2.03;77.04
56142;BME280;42018;48.588;10.836;2022-12-10T08:25:09;95686.66;;;1.95;78.54
56142;BME280;42018;48.588;10.836;2022-12-10T08:27:54;95685.41;;;1.97;78.21
56142;BME280;42018;48.588;10.836;2022-12-10T08:30:39;95694.22;;;2.08;77.98
56142;BME280;42018;48.588;10.836;2022-12-10T08:33:26;95686.59;;;2.06;77.76
56142;BME280;42018;48.588;10.836;2022-12-10T08:36:13;95691.50;;;2.20;76.55
56142;BME280;42018;48.588;10.836;2022-12-10T08:38:59;95695.56;;;2.10;76.16
56142;BME280;42018;48.588;10.836;2022-12-10T08:41:45;95698.63;;;1.90;77.55
56142;BME280;42018;48.588;10.836;2022-12-10T08:44:30;95702.13;;;1.96;78.63
56142;BME280;42018;48.588;10.836;2022-12-10T08:47:16;95703.22;;;2.00;78.65
56142;BME280;42018;48.588;10.836;2022-12-10T08:50:01;95701.47;;;2.06;77.88
56142;BME280;42018;48.588;10.836;2022-12-10T08:52:47;95708.16;;;2.13;77.88
56142;BME280;42018;48.588;10.836;2022-12-10T08:55:32;95705.47;;;2.25;76.37
56142;BME280;42018;48.588;10.836;2022-12-10T08:58:18;95717.50;;;2.26;76.67
56142;BME280;42018;48.588;10.836;2022-12-10T09:01:08;95719.72;;;2.18;76.58
56142;BME280;42018;48.588;10.836;2022-12-10T09:03:54;95713.72;;;1.88;77.67
56142;BME280;42018;48.588;10.836;2022-12-10T09:06:39;95710.53;;;1.70;78.68
56142;BME280;42018;48.588;10.836;2022-12-10T09:09:24;95712.75;;;1.61;79.78
56142;BME280;42018;48.588;10.836;2022-12-10T09:12:10;95714.03;;;1.47;78.72
56142;BME280;42018;48.588;10.836;2022-12-10T09:14:55;95720.09;;;1.35;80.31
56142;BME280;42018;48.588;10.836;2022-12-10T09:17:41;95720.09;;;1.35;80.86
56142;BME280;42018;48.588;10.836;2022-12-10T09:20:26;95719.25;;;1.47;80.89
56142;BME280;42018;48.588;10.836;2022-12-10T09:23:12;95720.25;;;1.57;80.67
56142;BME280;42018;48.588;10.836;2022-12-10T09:25:57;95711.91;;;1.72;80.11
56142;BME280;42018;48.588;10.836;2022-12-10T09:28:43;95710.44;;;1.64;79.51
56142;BME280;42018;48.588;10.836;2022-12-10T09:31:29;95711.91;;;1.72;78.90
56142;BME280;42018;48.588;10.836;2022-12-10T09:34:14;95722.94;;;1.62;79.43
56142;BME280;42018;48.588;10.836;2022-12-10T09:36:59;95723.03;;;1.67;79.90
56142;BME280;42018;48.588;10.836;2022-12-10T09:39:45;95705.16;;;1.76;78.17
56142;BME280;42018;48.588;10.836;2022-12-10T09:45:29;95724.06;;;1.66;78.60
56142;BME280;42018;48.588;10.836;2022-12-10T09:51:39;95727.22;;;1.68;78.36
56142;BME280;42018;48.588;10.836;2022-12-10T09:54:29;95729.72;;;1.75;78.32
56142;BME280;42018;48.588;10.836;2022-12-10T09:57:25;95737.69;;;1.68;78.88
56142;BME280;42018;48.588;10.836;2022-12-10T10:03:15;95730.97;;;1.73;79.00
56142;BME280;42018;48.588;10.836;2022-12-10T10:06:03;95735.84;;;1.69;79.61
56142;BME280;42018;48.588;10.836;2022-12-10T10:08:51;95731.75;;;1.73;79.58
56142;BME280;42018;48.588;10.836;2022-12-10T10:11:39;95730.63;;;1.69;79.86
56142;BME280;42018;48.588;10.836;2022-12-10T10:14:28;95728.03;;;1.69;80.08
56142;BME280;42018;48.588;10.836;2022-12-10T10:17:19;95729.06;;;1.85;79.75
56142;BME280;42018;48.588;10.836;2022-12-10T10:20:07;95737.41;;;1.82;79.47
56142;BME280;42018;48.588;10.836;2022-12-10T10:22:55;95740.09;;;1.87;80.31
56142;BME280;42018;48.588;10.836;2022-12-10T10:25:43;95732.81;;;1.89;79.40
56142;BME280;42018;48.588;10.836;2022-12-10T10:28:29;95729.78;;;1.80;80.29
56142;BME280;42018;48.588;10.836;2022-12-10T10:31:19;95728.25;;;1.96;79.91
56142;BME280;42018;48.588;10.836;2022-12-10T10:34:13;95721.72;;;1.99;78.79
56142;BME280;42018;48.588;10.836;2022-12-10T10:37:00;95720.09;;;1.92;78.44
56142;BME280;42018;48.588;10.836;2022-12-10T10:39:49;95722.41;;;1.77;79.33
56142;BME280;42018;48.588;10.836;2022-12-10T10:42:40;95720.75;;;1.71;79.08
56142;BME280;42018;48.588;10.836;2022-12-10T10:48:18;95724.56;;;1.80;78.76
56142;BME280;42018;48.588;10.836;2022-12-10T10:54:01;95721.81;;;1.87;78.83
56142;BME280;42018;48.588;10.836;2022-12-10T10:56:46;95717.56;;;1.98;78.50
56142;BME280;42018;48.588;10.836;2022-12-10T10:59:34;95731.66;;;1.68;78.77
56142;BME280;42018;48.588;10.836;2022-12-10T11:02:35;95727.22;;;1.68;80.11
56142;BME280;42018;48.588;10.836;2022-12-10T11:05:22;95722.88;;;1.74;78.97
56142;BME280;42018;48.588;10.836;2022-12-10T11:08:19;95722.97;;;1.79;78.53
56142;BME280;42018;48.588;10.836;2022-12-10T11:11:11;95717.28;;;1.82;78.62
56142;BME280;42018;48.588;10.836;2022-12-10T11:20:01;95722.97;;;1.79;78.18
56142;BME280;42018;48.588;10.836;2022-12-10T11:32:43;95722.97;;;1.79;78.84
56142;BME280;42018;48.588;10.836;2022-12-10T11:37:58;95733.50;;;1.84;79.00
56142;BME280;42018;48.588;10.836;2022-12-10T11:44:31;95717.53;;;1.52;79.62
56142;BME280;42018;48.588;10.836;2022-12-10T11:56:34;95716.00;;;1.68;79.39
56142;BME280;42018;48.588;10.836;2022-12-10T11:59:33;95713.59;;;1.50;80.05
56142;BME280;42018;48.588;10.836;2022-12-10T12:02:46;95718.22;;;1.48;81.31
56142;BME280;42018;48.588;10.836;2022-12-10T12:09:16;95716.00;;;1.39;80.12
56142;BME280;42018;48.588;10.836;2022-12-10T12:21:49;95733.53;;;1.15;81.46
56142;BME280;42018;48.588;10.836;2022-12-10T12:24:37;95733.28;;;1.29;80.29
56142;BME280;42018;48.588;10.836;2022-12-10T12:27:30;95745.94;;;1.37;81.00
56142;BME280;42018;48.588;10.836;2022-12-10T12:30:20;95750.84;;;1.33;80.31
56142;BME280;42018;48.588;10.836;2022-12-10T12:36:26;95768.03;;;1.58;80.48
56142;BME280;42018;48.588;10.836;2022-12-10T12:54:10;95780.38;;;1.22;80.48
56142;BME280;42018;48.588;10.836;2022-12-10T12:57:05;95786.59;;;1.09;80.85
56142;BME280;42018;48.588;10.836;2022-12-10T13:05:46;95790.81;;;1.22;81.11
56142;BME280;42018;48.588;10.836;2022-12-10T13:08:44;95787.06;;;1.06;81.45
56142;BME280;42018;48.588;10.836;2022-12-10T13:11:35;95784.69;;;1.28;81.53
56142;BME280;42018;48.588;10.836;2022-12-10T13:14:34;95794.72;;;1.48;81.05
56142;BME280;42018;48.588;10.836;2022-12-10T13:26:25;95789.31;;;1.26;80.80
56142;BME280;42018;48.588;10.836;2022-12-10T13:29:23;95796.22;;;1.32;80.53
56142;BME280;42018;48.588;10.836;2022-12-10T13:35:25;95809.50;;;1.31;80.53
56142;BME280;42018;48.588;10.836;2022-12-10T13:38:22;95817.09;;;1.32;80.50
56142;BME280;42018;48.588;10.836;2022-12-10T13:41:08;95820.03;;;1.24;80.98
56142;BME280;42018;48.588;10.836;2022-12-10T13:50:05;95829.59;;;1.18;80.11
56142;BME280;42018;48.588;10.836;2022-12-10T14:02:49;95841.13;;;1.34;80.60
56142;BME280;42018;48.588;10.836;2022-12-10T14:08:07;95854.09;;;1.29;80.27
56142;BME280;42018;48.588;10.836;2022-12-10T14:10:57;95858.16;;;1.02;80.27
56142;BME280;42018;48.588;10.836;2022-12-10T14:13:47;95867.69;;;0.96;81.37
56142;BME280;42018;48.588;10.836;2022-12-10T14:16:35;95861.47;;;0.97;81.43
56142;BME280;42018;48.588;10.836;2022-12-10T14:19:23;95865.41;;;1.00;81.36
56142;BME280;42018;48.588;10.836;2022-12-10T14:22:16;95865.41;;;1.00;82.06
56142;BME280;42018;48.588;10.836;2022-12-10T14:25:09;95867.91;;;0.94;81.85
56142;BME280;42018;48.588;10.836;2022-12-10T14:27:56;95872.44;;;0.99;81.82
56142;BME280;42018;48.588;10.836;2022-12-10T14:30:52;95870.53;;;0.94;81.85
56142;BME280;42018;48.588;10.836;2022-12-10T14:33:38;95875.97;;;0.93;82.48
56142;BME280;42018;48.588;10.836;2022-12-10T14:36:29;95883.31;;;0.84;82.47
56142;BME280;42018;48.588;10.836;2022-12-10T14:39:21;95882.63;;;0.89;82.37
56142;BME280;42018;48.588;10.836;2022-12-10T14:42:12;95890.81;;;0.92;82.09
56142;BME280;42018;48.588;10.836;2022-12-10T14:45:03;95888.22;;;1.04;81.74
56142;BME280;42018;48.588;10.836;2022-12-10T14:47:49;95892.78;;;1.09;81.13
56142;BME280;42018;48.588;10.836;2022-12-10T14:50:37;95891.41;;;1.06;81.10
56142;BME280;42018;48.588;10.836;2022-12-10T14:53:25;95893.91;;;1.01;80.37
56142;BME280;42018;48.588;10.836;2022-12-10T14:56:16;95898.09;;;1.02;80.39
56142;BME280;42018;48.588;10.836;2022-12-10T14:59:15;95908.50;;;0.90;80.43
56142;BME280;42018;48.588;10.836;2022-12-10T15:02:15;95914.53;;;1.03;80.57
56142;BME280;42018;48.588;10.836;2022-12-10T15:05:02;95923.28;;;0.97;80.42
56142;BME280;42018;48.588;10.836;2022-12-10T15:08:01;95927.13;;;0.94;80.59
56142;BME280;42018;48.588;10.836;2022-12-10T15:10:50;95929.94;;;0.92;81.02
56142;BME280;42018;48.588;10.836;2022-12-10T15:13:40;95929.59;;;0.89;80.81
56142;BME280;42018;48.588;10.836;2022-12-10T15:16:38;95931.44;;;1.00;80.68
56142;BME280;42018;48.588;10.836;2022-12-10T15:22:20;95928.00;;;0.88;81.03
56142;BME280;42018;48.588;10.836;2022-12-10T15:25:27;95923.38;;;0.90;80.38
56142;BME280;42018;48.588;10.836;2022-12-10T15:28:25;95929.56;;;0.77;80.52
56142;BME280;42018;48.588;10.836;2022-12-10T15:31:32;95934.25;;;0.87;80.42
56142;BME280;42018;48.588;10.836;2022-12-10T15:34:16;95936.84;;;0.75;80.30
56142;BME280;42018;48.588;10.836;2022-12-10T15:37:03;95939.03;;;0.60;80.11
56142;BME280;42018;48.588;10.836;2022-12-10T15:39:52;95931.72;;;0.68;80.10
56142;BME280;42018;48.588;10.836;2022-12-10T15:42:44;95939.53;;;0.68;80.78
56142;BME280;42018;48.588;10.836;2022-12-10T15:45:41;95937.72;;;0.69;79.89
56142;BME280;42018;48.588;10.836;2022-12-10T15:48:28;95933.63;;;0.61;80.21
56142;BME280;42018;48.588;10.836;2022-12-10T15:51:15;95941.69;;;0.71;80.73
56142;BME280;42018;48.588;10.836;2022-12-10T15:54:00;95943.28;;;0.84;80.59
56142;BME280;42018;48.588;10.836;2022-12-10T15:56:45;95943.19;;;0.79;79.78
56142;BME280;42018;48.588;10.836;2022-12-10T15:59:31;95949.50;;;0.71;79.30
56142;BME280;42018;48.588;10.836;2022-12-10T16:02:57;95952.91;;;0.72;78.59
56142;BME280;42018;48.588;10.836;2022-12-10T16:05:43;95950.25;;;0.60;79.34
56142;BME280;42018;48.588;10.836;2022-12-10T16:08:31;95957.19;;;0.66;79.42
56142;BME280;42018;48.588;10.836;2022-12-10T16:11:19;95947.88;;;0.59;80.25
56142;BME280;42018;48.588;10.836;2022-12-10T16:14:05;95959.97;;;0.53;80.25
56142;BME280;42018;48.588;10.836;2022-12-10T16:16:51;95956.66;;;0.46;80.41
56142;BME280;42018;48.588;10.836;2022-12-10T16:19:37;95956.88;;;0.44;80.47
56142;BME280;42018;48.588;10.836;2022-12-10T16:22:22;95962.69;;;0.28;80.88
56142;BME280;42018;48.588;10.836;2022-12-10T16:25:08;95971.56;;;0.39;80.64
56142;BME280;42018;48.588;10.836;2022-12-10T16:27:53;95972.25;;;0.34;80.49
56142;BME280;42018;48.588;10.836;2022-12-10T16:30:47;95978.75;;;0.43;80.26
56142;BME280;42018;48.588;10.836;2022-12-10T16:33:34;95977.78;;;0.56;79.62
56142;BME280;42018;48.588;10.836;2022-12-10T16:36:19;95976.06;;;0.80;79.00
56142;BME280;42018;48.588;10.836;2022-12-10T16:39:04;95977.72;;;0.75;78.94
56142;BME280;42018;48.588;10.836;2022-12-10T16:41:53;95977.84;;;0.68;78.61
56142;BME280;42018;48.588;10.836;2022-12-10T16:44:39;95990.38;;;0.59;79.37
56142;BME280;42018;48.588;10.836;2022-12-10T16:47:25;95977.47;;;0.64;79.38
56142;BME280;42018;48.588;10.836;2022-12-10T16:50:11;95981.41;;;0.55;78.76
56142;BME280;42018;48.588;10.836;2022-12-10T16:52:57;95983.66;;;0.52;78.95
56142;BME280;42018;48.588;10.836;2022-12-10T16:55:46;95988.16;;;0.44;79.69
56142;BME280;42018;48.588;10.836;2022-12-10T16:58:31;95981.44;;;0.37;79.72
56142;BME280;42018;48.588;10.836;2022-12-10T17:04:04;95994.66;;;0.35;80.37